Time,TemperatureF,DewpointF,PressureIn,WindDirection,WindDirectionDegrees,WindSpeedMPH,WindSpeedGustMPH,Humidity,HourlyPrecipIn,Conditions,Clouds,dailyrainin,SoftwareType,DateUTC
2013-05-09 00:00:00,73.0,-99.9,29.97,SSE,150,15.0,19.0,-999,-99.99,,,-99.99,,2013-05-09 05:00:00,
2013-05-09 00:32:00,73.0,-99.9,29.97,SSE,150,15.0,19.0,-999,-99.99,,,-99.99,,2013-05-09 05:32:00,
2013-05-09 00:43:00,73.0,-99.9,29.97,SSE,150,15.0,19.0,-999,-99.99,,,-99.99,,2013-05-09 05:43:00,
2013-05-09 00:52:00,73.0,-99.9,29.97,SSE,150,15.0,19.0,-999,-99.99,,,-99.99,,2013-05-09 05:52:00,
2013-05-09 01:00:00,73.0,-99.9,29.96,SSE,156,12.0,16.0,-999,-99.99,,,-99.99,,2013-05-09 06:00:00,
2013-05-09 01:32:00,73.0,-99.9,29.96,SSE,156,12.0,16.0,-999,-99.99,,,-99.99,,2013-05-09 06:32:00,
2013-05-09 01:42:00,73.0,-99.9,29.96,SSE,156,12.0,16.0,-999,-99.99,,,-99.99,,2013-05-09 06:42:00,
2013-05-09 01:52:00,73.0,-99.9,29.96,SSE,156,12.0,16.0,-999,-99.99,,,-99.99,,2013-05-09 06:52:00,
2013-05-09 02:00:00,73.0,-99.9,29.96,SSE,155,12.0,13.0,-999,-99.99,,,-99.99,,2013-05-09 07:00:00,
2013-05-09 02:32:00,73.0,-99.9,29.96,SSE,155,12.0,13.0,-999,-99.99,,,-99.99,,2013-05-09 07:32:00,
2013-05-09 02:43:00,73.0,-99.9,29.96,SSE,155,12.0,13.0,-999,-99.99,,,-99.99,,2013-05-09 07:43:00,
2013-05-09 02:52:00,73.0,-99.9,29.96,SSE,155,12.0,13.0,-999,-99.99,,,-99.99,,2013-05-09 07:52:00,
2013-05-09 03:00:00,73.0,-99.9,29.93,SE,142,14.0,16.0,-999,-99.99,,,-99.99,,2013-05-09 08:00:00,
2013-05-09 03:32:00,73.0,-99.9,29.93,SE,142,14.0,16.0,-999,-99.99,,,-99.99,,2013-05-09 08:32:00,
2013-05-09 03:42:00,73.0,-99.9,29.93,SE,142,14.0,16.0,-999,-99.99,,,-99.99,,2013-05-09 08:42:00,
2013-05-09 03:52:00,73.0,-99.9,29.93,SE,142,14.0,16.0,-999,-99.99,,,-99.99,,2013-05-09 08:52:00,
2013-05-09 04:00:00,73.0,-99.9,29.93,SSE,152,13.0,15.0,-999,-99.99,,,-99.99,,2013-05-09 09:00:00,
2013-05-09 04:32:00,73.0,-99.9,29.93,SSE,152,13.0,15.0,-999,-99.99,,,-99.99,,2013-05-09 09:32:00,
2013-05-09 04:43:00,73.0,-99.9,29.93,SSE,152,13.0,15.0,-999,-99.99,,,-99.99,,2013-05-09 09:43:00,
2013-05-09 04:53:00,73.0,-99.9,29.93,SSE,152,13.0,15.0,-999,-99.99,,,-99.99,,2013-05-09 09:53:00,
2013-05-09 05:00:00,73.0,-99.9,29.92,SE,141,13.0,15.0,-999,-99.99,,,-99.99,,2013-05-09 10:00:00,
2013-05-09 05:33:00,73.0,-99.9,29.92,SE,141,13.0,15.0,-999,-99.99,,,-99.99,,2013-05-09 10:33:00,
2013-05-09 05:42:00,73.0,-99.9,29.92,SE,141,13.0,15.0,-999,-99.99,,,-99.99,,2013-05-09 10:42:00,
2013-05-09 05:53:00,73.0,-99.9,29.92,SE,141,13.0,15.0,-999,-99.99,,,-99.99,,2013-05-09 10:53:00,
2013-05-09 06:00:00,73.0,-99.9,29.91,SSE,155,14.0,16.0,-999,-99.99,,,-99.99,,2013-05-09 11:00:00,
2013-05-09 06:32:00,73.0,-99.9,29.91,SSE,155,14.0,16.0,-999,-99.99,,,-99.99,,2013-05-09 11:32:00,
2013-05-09 06:42:00,73.0,-99.9,29.91,SSE,155,14.0,16.0,-999,-99.99,,,-99.99,,2013-05-09 11:42:00,
2013-05-09 06:52:00,73.0,-99.9,29.91,SSE,155,14.0,16.0,-999,-99.99,,,-99.99,,2013-05-09 11:52:00,
2013-05-09 07:00:00,73.0,-99.9,29.93,SE,146,14.0,16.0,-999,-99.99,,,-99.99,,2013-05-09 12:00:00,
2013-05-09 07:32:00,73.0,-99.9,29.93,SE,146,14.0,16.0,-999,-99.99,,,-99.99,,2013-05-09 12:32:00,
2013-05-09 07:43:00,73.0,-99.9,29.93,SE,146,14.0,16.0,-999,-99.99,,,-99.99,,2013-05-09 12:43:00,
2013-05-09 07:52:00,73.0,-99.9,29.93,SE,146,14.0,16.0,-999,-99.99,,,-99.99,,2013-05-09 12:52:00,
2013-05-09 08:00:00,73.0,-99.9,29.94,SE,142,13.0,15.0,-999,-99.99,,,-99.99,,2013-05-09 13:00:00,
2013-05-09 08:32:00,73.0,-99.9,29.94,SE,142,13.0,15.0,-999,-99.99,,,-99.99,,2013-05-09 13:32:00,
2013-05-09 08:42:00,73.0,-99.9,29.94,SE,142,13.0,15.0,-999,-99.99,,,-99.99,,2013-05-09 13:42:00,
2013-05-09 08:52:00,73.0,-99.9,29.94,SE,142,13.0,15.0,-999,-99.99,,,-99.99,,2013-05-09 13:52:00,
2013-05-09 09:00:00,74.0,-99.9,29.97,SSE,154,12.0,15.0,-999,-99.99,,,-99.99,,2013-05-09 14:00:00,
2013-05-09 09:32:00,74.0,-99.9,29.97,SSE,154,12.0,15.0,-999,-99.99,,,-99.99,,2013-05-09 14:32:00,
2013-05-09 09:42:00,74.0,-99.9,29.97,SSE,154,12.0,15.0,-999,-99.99,,,-99.99,,2013-05-09 14:42:00,
2013-05-09 09:52:00,74.0,-99.9,29.97,SSE,154,12.0,15.0,-999,-99.99,,,-99.99,,2013-05-09 14:52:00,
2013-05-09 10:00:00,74.0,-99.9,29.96,SE,141,13.0,16.0,-999,-99.99,,,-99.99,,2013-05-09 15:00:00,
2013-05-09 10:33:00,74.0,-99.9,29.96,SE,141,13.0,16.0,-999,-99.99,,,-99.99,,2013-05-09 15:33:00,
2013-05-09 10:43:00,74.0,-99.9,29.96,SE,141,13.0,16.0,-999,-99.99,,,-99.99,,2013-05-09 15:43:00,
2013-05-09 10:53:00,74.0,-99.9,29.96,SE,141,13.0,16.0,-999,-99.99,,,-99.99,,2013-05-09 15:53:00,
2013-05-09 11:00:00,74.0,-99.9,29.96,SE,145,16.0,21.0,-999,-99.99,,,-99.99,,2013-05-09 16:00:00,
2013-05-09 11:33:00,74.0,-99.9,29.96,SE,145,16.0,21.0,-999,-99.99,,,-99.99,,2013-05-09 16:33:00,
2013-05-09 11:42:00,74.0,-99.9,29.96,SE,145,16.0,21.0,-999,-99.99,,,-99.99,,2013-05-09 16:42:00,
2013-05-09 11:53:00,74.0,-99.9,29.96,SE,145,16.0,21.0,-999,-99.99,,,-99.99,,2013-05-09 16:53:00,
2013-05-09 12:00:00,74.0,-99.9,29.96,SSE,147,15.0,17.0,-999,-99.99,,,-99.99,,2013-05-09 17:00:00,
2013-05-09 12:32:00,74.0,-99.9,29.96,SSE,147,15.0,17.0,-999,-99.99,,,-99.99,,2013-05-09 17:32:00,
2013-05-09 12:42:00,74.0,-99.9,29.96,SSE,147,15.0,17.0,-999,-99.99,,,-99.99,,2013-05-09 17:42:00,
2013-05-09 12:55:00,74.0,-99.9,29.96,SSE,147,15.0,17.0,-999,-99.99,,,-99.99,,2013-05-09 17:55:00,
2013-05-09 13:00:00,74.0,-99.9,29.95,SSE,159,14.0,17.0,-999,-99.99,,,-99.99,,2013-05-09 18:00:00,
2013-05-09 13:22:00,74.0,-99.9,29.95,SSE,159,14.0,17.0,-999,-99.99,,,-99.99,,2013-05-09 18:22:00,
2013-05-09 13:32:00,74.0,-99.9,29.95,SSE,159,14.0,17.0,-999,-99.99,,,-99.99,,2013-05-09 18:32:00,
2013-05-09 13:42:00,74.0,-99.9,29.95,SSE,159,14.0,17.0,-999,-99.99,,,-99.99,,2013-05-09 18:42:00,
2013-05-09 13:53:00,74.0,-99.9,29.95,SSE,159,14.0,17.0,-999,-99.99,,,-99.99,,2013-05-09 18:53:00,
2013-05-09 14:00:00,74.0,-99.9,29.94,SSE,157,16.0,18.0,-999,-99.99,,,-99.99,,2013-05-09 19:00:00,
2013-05-09 14:32:00,74.0,-99.9,29.94,SSE,157,16.0,18.0,-999,-99.99,,,-99.99,,2013-05-09 19:32:00,
2013-05-09 14:42:00,74.0,-99.9,29.94,SSE,157,16.0,18.0,-999,-99.99,,,-99.99,,2013-05-09 19:42:00,
2013-05-09 14:52:00,74.0,-99.9,29.94,SSE,157,16.0,18.0,-999,-99.99,,,-99.99,,2013-05-09 19:52:00,
2013-05-09 15:00:00,74.0,-99.9,29.92,SSE,165,16.0,18.0,-999,-99.99,,,-99.99,,2013-05-09 20:00:00,
2013-05-09 15:32:00,74.0,-99.9,29.92,SSE,165,16.0,18.0,-999,-99.99,,,-99.99,,2013-05-09 20:32:00,
2013-05-09 15:42:00,74.0,-99.9,29.92,SSE,165,16.0,18.0,-999,-99.99,,,-99.99,,2013-05-09 20:42:00,
2013-05-09 15:52:00,74.0,-99.9,29.92,SSE,165,16.0,18.0,-999,-99.99,,,-99.99,,2013-05-09 20:52:00,
2013-05-09 16:00:00,73.0,-99.9,29.90,SE,142,12.0,13.0,-999,-99.99,,,-99.99,,2013-05-09 21:00:00,
2013-05-09 16:33:00,73.0,-99.9,29.90,SE,142,12.0,13.0,-999,-99.99,,,-99.99,,2013-05-09 21:33:00,
2013-05-09 16:43:00,73.0,-99.9,29.90,SE,142,12.0,13.0,-999,-99.99,,,-99.99,,2013-05-09 21:43:00,
2013-05-09 16:53:00,73.0,-99.9,29.90,SE,142,12.0,13.0,-999,-99.99,,,-99.99,,2013-05-09 21:53:00,
2013-05-09 17:00:00,74.0,-99.9,29.87,SSE,147,14.0,17.0,-999,-99.99,,,-99.99,,2013-05-09 22:00:00,
2013-05-09 17:33:00,74.0,-99.9,29.87,SSE,147,14.0,17.0,-999,-99.99,,,-99.99,,2013-05-09 22:33:00,
2013-05-09 17:42:00,74.0,-99.9,29.87,SSE,147,14.0,17.0,-999,-99.99,,,-99.99,,2013-05-09 22:42:00,
2013-05-09 17:53:00,74.0,-99.9,29.87,SSE,147,14.0,17.0,-999,-99.99,,,-99.99,,2013-05-09 22:53:00,
2013-05-09 18:00:00,74.0,-99.9,29.83,SSE,148,16.0,19.0,-999,-99.99,,,-99.99,,2013-05-09 23:00:00,
2013-05-09 18:32:00,74.0,-99.9,29.83,SSE,148,16.0,19.0,-999,-99.99,,,-99.99,,2013-05-09 23:32:00,
2013-05-09 18:43:00,74.0,-99.9,29.83,SSE,148,16.0,19.0,-999,-99.99,,,-99.99,,2013-05-09 23:43:00,
2013-05-09 18:52:00,74.0,-99.9,29.83,SSE,148,16.0,19.0,-999,-99.99,,,-99.99,,2013-05-09 23:52:00,
2013-05-09 19:00:00,74.0,-99.9,29.84,SE,138,14.0,18.0,-999,-99.99,,,-99.99,,2013-05-10 00:00:00,
2013-05-09 19:32:00,74.0,-99.9,29.84,SE,138,14.0,18.0,-999,-99.99,,,-99.99,,2013-05-10 00:32:00,
2013-05-09 19:42:00,74.0,-99.9,29.84,SE,138,14.0,18.0,-999,-99.99,,,-99.99,,2013-05-10 00:42:00,
2013-05-09 19:52:00,74.0,-99.9,29.84,SE,138,14.0,18.0,-999,-99.99,,,-99.99,,2013-05-10 00:52:00,
2013-05-09 20:00:00,73.0,-99.9,29.84,SE,130,13.0,16.0,-999,-99.99,,,-99.99,,2013-05-10 01:00:00,
2013-05-09 20:32:00,73.0,-99.9,29.84,SE,130,13.0,16.0,-999,-99.99,,,-99.99,,2013-05-10 01:32:00,
2013-05-09 20:42:00,73.0,-99.9,29.84,SE,130,13.0,16.0,-999,-99.99,,,-99.99,,2013-05-10 01:42:00,
2013-05-09 20:52:00,73.0,-99.9,29.84,SE,130,13.0,16.0,-999,-99.99,,,-99.99,,2013-05-10 01:52:00,
2013-05-09 21:00:00,73.0,-99.9,29.87,ESE,121,12.0,14.0,-999,-99.99,,,-99.99,,2013-05-10 02:00:00,
2013-05-09 21:32:00,73.0,-99.9,29.87,ESE,121,12.0,14.0,-999,-99.99,,,-99.99,,2013-05-10 02:32:00,
2013-05-09 21:42:00,73.0,-99.9,29.87,ESE,121,12.0,14.0,-999,-99.99,,,-99.99,,2013-05-10 02:42:00,
2013-05-09 21:53:00,73.0,-99.9,29.87,ESE,121,12.0,14.0,-999,-99.99,,,-99.99,,2013-05-10 02:53:00,
2013-05-09 22:00:00,73.0,-99.9,29.88,SE,126,12.0,15.0,-999,-99.99,,,-99.99,,2013-05-10 03:00:00,
2013-05-09 22:33:00,73.0,-99.9,29.88,SE,126,12.0,15.0,-999,-99.99,,,-99.99,,2013-05-10 03:33:00,
2013-05-09 22:43:00,73.0,-99.9,29.88,SE,126,12.0,15.0,-999,-99.99,,,-99.99,,2013-05-10 03:43:00,
2013-05-09 22:53:00,73.0,-99.9,29.88,SE,126,12.0,15.0,-999,-99.99,,,-99.99,,2013-05-10 03:53:00,
2013-05-09 23:00:00,73.0,-99.9,29.89,SE,139,15.0,17.0,-999,-99.99,,,-99.99,,2013-05-10 04:00:00,
2013-05-09 23:33:00,73.0,-99.9,29.89,SE,139,15.0,17.0,-999,-99.99,,,-99.99,,2013-05-10 04:33:00,
2013-05-09 23:43:00,73.0,-99.9,29.89,SE,139,15.0,17.0,-999,-99.99,,,-99.99,,2013-05-10 04:43:00,
2013-05-09 23:53:00,73.0,-99.9,29.89,SE,139,15.0,17.0,-999,-99.99,,,-99.99,,2013-05-10 04:53:00,